Time;durP1;ratioP1;P1;durP2;ratioP2;P2;SDS_P1;SDS_P2;PMS_P1;PMS_P2;Temp;Humidity;BMP_temperature;BMP_pressure;BME280_temperature;BME280_humidity;BME280_pressure;Samples;Min_cycle;Max_cycle;Signal;HPM_P1;HPM_P2
2021/08/14 00:01:53;;;;;;;1999.90;999.90;;;;;;;20.56;75.60;96292.91;4989396;28;20623;-68
2021/08/14 00:04:20;;;;;;;1999.90;999.90;;;;;;;20.68;75.34;96301.84;4989483;28;20753;-68
2021/08/14 00:06:47;;;;;;;1999.90;999.90;;;;;;;20.72;74.93;96305.38;4989086;28;20199;-68
2021/08/14 00:09:14;;;;;;;1999.90;999.90;;;;;;;20.82;74.48;96299.59;4989343;28;20203;-68
2021/08/14 00:11:43;;;;;;;1999.90;999.90;;;;;;;20.79;74.51;96297.59;4989350;28;20242;-68
2021/08/14 00:14:10;;;;;;;1999.90;999.90;;;;;;;20.82;74.28;96299.59;4989282;28;20195;-68
2021/08/14 00:16:37;;;;;;;1999.90;999.90;;;;;;;20.79;74.29;96293.09;4989228;28;20200;-68
2021/08/14 00:19:04;;;;;;;1999.90;999.90;;;;;;;20.90;73.81;96298.66;4988932;28;20199;-69
2021/08/14 00:21:31;;;;;;;1999.90;999.90;;;;;;;20.89;73.90;96297.13;4988873;28;20207;-69
2021/08/14 00:23:59;;;;;;;1999.90;999.90;;;;;;;20.85;73.70;96312.13;4989218;28;20548;-68
2021/08/14 00:26:26;;;;;;;1999.90;999.90;;;;;;;20.86;73.41;96313.66;4989239;28;20260;-68
2021/08/14 00:28:54;;;;;;;1999.90;999.90;;;;;;;20.79;73.68;96308.19;4988847;28;20260;-68
2021/08/14 00:31:21;;;;;;;1999.90;999.90;;;;;;;20.79;73.86;96316.09;4988874;28;20207;-69
2021/08/14 00:33:49;;;;;;;1999.90;999.90;;;;;;;20.79;73.63;96319.50;4988691;28;20247;-68
2021/08/14 00:36:16;;;;;;;1999.90;999.90;;;;;;;20.62;74.38;96328.50;4988885;28;20210;-68
2021/08/14 00:38:43;;;;;;;1999.90;999.90;;;;;;;20.67;74.39;96324.09;4988211;28;20298;-68
2021/08/14 00:41:10;;;;;;;1999.90;999.90;;;;;;;20.51;74.78;96330.09;4989052;28;20233;-69
2021/08/14 00:43:37;;;;;;;1999.90;999.90;;;;;;;20.51;75.07;96324.81;4988941;28;20203;-69
2021/08/14 00:46:06;;;;;;;1999.90;999.90;;;;;;;20.46;75.08;96322.44;4988781;28;20260;-69
2021/08/14 00:48:33;;;;;;;1999.90;999.90;;;;;;;20.53;74.64;96317.31;4992267;28;20662;-69
2021/08/14 00:51:00;;;;;;;1999.90;999.90;;;;;;;20.49;74.92;96315.69;5090588;28;20195;-69
2021/08/14 00:53:27;;;;;;;1999.90;999.90;;;;;;;20.52;74.93;96323.69;5091021;28;20226;-70
2021/08/14 00:55:55;;;;;;;1999.90;999.90;;;;;;;20.57;74.75;96323.47;5091181;28;20249;-68
2021/08/14 00:58:22;;;;;;;1999.90;999.90;;;;;;;20.49;75.20;96321.75;5090764;28;20656;-70
2021/08/14 01:00:49;;;;;;;1999.90;999.90;;;;;;;20.39;75.43;96326.72;5090888;28;20196;-70
2021/08/14 01:03:18;;;;;;;1999.90;999.90;;;;;;;20.38;75.50;96323.31;5090943;28;20276;-69
2021/08/14 01:05:46;;;;;;;1999.90;999.90;;;;;;;20.47;75.38;96323.19;5091057;28;20226;-69
2021/08/14 01:08:15;;;;;;;1999.90;999.90;;;;;;;20.28;75.43;96323.75;5090519;28;20204;-68
2021/08/14 01:10:42;;;;;;;1999.90;999.90;;;;;;;20.28;75.81;96317.69;5090434;28;20273;-68
2021/08/14 01:13:10;;;;;;;1999.90;999.90;;;;;;;20.14;76.49;96315.44;5090999;28;20231;-68
2021/08/14 01:15:40;;;;;;;1999.90;999.90;;;;;;;20.10;77.01;96314.56;5090685;28;20202;-68
2021/08/14 01:18:08;;;;;;;1999.90;999.90;;;;;;;20.12;77.13;96309.75;5090953;28;20184;-66
2021/08/14 01:20:36;;;;;;;1999.90;999.90;;;;;;;20.11;77.05;96321.41;5090392;28;20204;-69
2021/08/14 01:23:05;;;;;;;1999.90;999.90;;;;;;;20.06;77.53;96316.34;5090624;28;20671;-68
2021/08/14 01:25:32;;;;;;;1999.90;999.90;;;;;;;20.00;77.76;96325.59;5090619;28;20206;-68
2021/08/14 01:28:01;;;;;;;1999.90;999.90;;;;;;;19.69;79.21;96326.94;5090615;28;20215;-68
2021/08/14 01:30:29;;;;;;;1999.90;999.90;;;;;;;19.64;79.54;96324.53;5090484;28;20391;-69
2021/08/14 01:32:56;;;;;;;1999.90;999.90;;;;;;;19.46;80.69;96328.50;5090061;28;20315;-69
2021/08/14 01:35:23;;;;;;;1999.90;999.90;;;;;;;19.41;81.23;96320.78;5090329;28;20223;-70
2021/08/14 01:37:50;;;;;;;1999.90;999.90;;;;;;;19.24;81.99;96323.59;5090069;28;20200;-70
2021/08/14 01:40:17;;;;;;;1999.90;999.90;;;;;;;19.26;81.86;96324.06;5090356;28;20622;-64
2021/08/14 01:42:44;;;;;;;1999.90;999.90;;;;;;;19.13;82.71;96319.84;5089905;28;20210;-64
2021/08/14 01:45:12;;;;;;;1999.90;999.90;;;;;;;18.90;83.56;96317.63;5090019;28;20204;-66
2021/08/14 01:47:39;;;;;;;1999.90;999.90;;;;;;;18.89;84.51;96325.84;5089841;28;20196;-66
2021/08/14 01:50:07;;;;;;;1999.90;999.90;;;;;;;18.81;84.94;96334.59;5020362;28;20231;-64
2021/08/14 01:52:34;;;;;;;1999.90;999.90;;;;;;;18.95;84.28;96326.41;4987478;28;20262;-64
2021/08/14 01:55:01;;;;;;;1999.90;999.90;;;;;;;18.86;85.03;96329.91;4987529;28;20257;-64
2021/08/14 01:57:28;;;;;;;1999.90;999.90;;;;;;;18.69;86.06;96332.69;4987841;28;20926;-66
2021/08/14 01:59:55;;;;;;;1999.90;999.90;;;;;;;18.43;87.07;96335.50;4987680;28;20227;-65
2021/08/14 02:02:24;;;;;;;1999.90;999.90;;;;;;;18.31;87.88;96324.94;4981962;28;20676;-67
2021/08/14 02:04:51;;;;;;;1999.90;999.90;;;;;;;18.29;87.89;96323.72;4973367;28;20218;-68
2021/08/14 02:07:19;;;;;;;1999.90;999.90;;;;;;;18.28;88.58;96322.94;4981683;28;20242;-69
2021/08/14 02:09:46;;;;;;;1999.90;999.90;;;;;;;18.19;88.59;96324.88;4974589;28;20210;-69
2021/08/14 02:12:13;;;;;;;1999.90;999.90;;;;;;;17.71;90.31;96325.34;4968143;28;20200;-68
2021/08/14 02:14:40;;;;;;;1999.90;999.90;;;;;;;17.73;91.59;96322.41;4967798;28;20201;-68
2021/08/14 02:17:07;;;;;;;1999.90;999.90;;;;;;;17.92;91.85;96315.63;4990784;28;20233;-68
2021/08/14 02:19:35;;;;;;;1999.90;999.90;;;;;;;17.86;91.24;96316.91;4987838;28;20242;-68
2021/08/14 02:22:03;;;;;;;1999.90;999.90;;;;;;;17.87;91.02;96318.44;4985496;28;20260;-70
2021/08/14 02:24:30;;;;;;;1999.90;999.90;;;;;;;17.88;91.51;96319.97;4987091;28;20339;-68
2021/08/14 02:26:57;;;;;;;1999.90;999.90;;;;;;;17.92;90.60;96320.91;4986835;28;20824;-69
2021/08/14 02:29:24;;;;;;;1999.90;999.90;;;;;;;17.81;89.54;96324.22;4986460;28;20203;-69
2021/08/14 02:31:51;;;;;;;1999.90;999.90;;;;;;;17.81;91.41;96313.69;4986711;28;20260;-69
2021/08/14 02:34:18;;;;;;;1999.90;999.90;;;;;;;17.81;91.58;96314.47;4986829;28;20223;-70
2021/08/14 02:36:47;;;;;;;1999.90;999.90;;;;;;;17.91;90.65;96313.31;4986653;28;20260;-69
2021/08/14 02:39:14;;;;;;;1999.90;999.90;;;;;;;17.98;90.34;96319.59;4986555;28;20217;-69
2021/08/14 02:41:41;;;;;;;1999.90;999.90;;;;;;;17.98;90.04;96314.34;4986794;28;20289;-69
2021/08/14 02:44:09;;;;;;;1999.90;999.90;;;;;;;17.95;90.23;96312.34;4986019;28;20195;-69
2021/08/14 02:46:36;;;;;;;1999.90;999.90;;;;;;;17.71;89.93;96320.09;4983998;28;20306;-69
2021/08/14 02:49:03;;;;;;;1999.90;999.90;;;;;;;17.51;91.37;96323.41;4986192;28;20288;-69
2021/08/14 02:51:30;;;;;;;1999.90;999.90;;;;;;;17.67;90.77;96324.44;4986466;28;20260;-68
2021/08/14 02:53:58;;;;;;;1999.90;999.90;;;;;;;17.75;90.76;96326.25;4972745;28;20228;-68
2021/08/14 02:56:26;;;;;;;1999.90;999.90;;;;;;;17.86;90.73;96327.44;4980460;28;20215;-69
2021/08/14 02:58:53;;;;;;;1999.90;999.90;;;;;;;17.92;91.10;96330.66;4967222;28;20615;-68
2021/08/14 03:01:20;;;;;;;1999.90;999.90;;;;;;;18.01;91.33;96332.13;4966824;28;20207;-68
2021/08/14 03:03:47;;;;;;;1999.90;999.90;;;;;;;18.08;92.01;96338.75;4966868;28;20203;-70
2021/08/14 03:06:24;;;;;;;1999.90;999.90;;;;;;;18.16;91.76;96335.28;4968906;28;20298;-70
2021/08/14 03:08:51;;;;;;;1999.90;999.90;;;;;;;18.28;91.43;96338.72;4967151;28;20222;-69
2021/08/14 03:11:20;;;;;;;1999.90;999.90;;;;;;;18.32;91.04;96338.88;4966982;28;20239;-68
2021/08/14 03:13:47;;;;;;;1999.90;999.90;;;;;;;18.38;90.00;96343.59;4966558;28;20227;-69
2021/08/14 03:16:14;;;;;;;1999.90;999.90;;;;;;;18.33;90.46;96341.16;4966138;28;20692;-69
2021/08/14 03:18:41;;;;;;;1999.90;999.90;;;;;;;18.19;89.36;96339.88;4966989;28;20200;-69
2021/08/14 03:21:08;;;;;;;1999.90;999.90;;;;;;;18.20;90.01;96344.06;4967051;28;20204;-69
2021/08/14 03:23:35;;;;;;;1999.90;999.90;;;;;;;18.19;91.37;96345.91;4967242;28;20204;-69
2021/08/14 03:26:02;;;;;;;1999.90;999.90;;;;;;;18.22;90.84;96349.78;4982304;28;20207;-68
2021/08/14 03:28:31;;;;;;;1999.90;999.90;;;;;;;18.32;90.19;96352.03;4986236;28;20260;-68
2021/08/14 03:30:58;;;;;;;1999.90;999.90;;;;;;;18.41;89.54;96358.00;4986540;28;20733;-68
2021/08/14 03:33:25;;;;;;;1999.90;999.90;;;;;;;18.29;90.31;96348.16;4987028;28;20233;-68
2021/08/14 03:35:52;;;;;;;1999.90;999.90;;;;;;;18.29;90.50;96356.06;4991179;28;20760;-68
2021/08/14 03:38:19;;;;;;;1999.90;999.90;;;;;;;18.34;90.77;96357.72;4989602;28;20234;-70
2021/08/14 03:40:46;;;;;;;1999.90;999.90;;;;;;;18.39;90.41;96355.69;4989801;28;20200;-70
2021/08/14 03:43:13;;;;;;;1999.90;999.90;;;;;;;18.45;89.97;96370.19;4989450;28;20191;-68
2021/08/14 03:45:41;;;;;;;1999.90;999.90;;;;;;;18.44;89.59;96367.88;4989713;28;20234;-69
2021/08/14 03:48:08;;;;;;;1999.90;999.90;;;;;;;18.51;89.65;96368.13;4989000;28;20591;-68
2021/08/14 03:50:35;;;;;;;1999.90;999.90;;;;;;;18.59;89.24;96364.69;4989326;28;20576;-67
2021/08/14 03:53:02;;;;;;;1999.90;999.90;;;;;;;18.66;88.75;96367.59;4989273;28;20284;-68
2021/08/14 03:55:29;;;;;;;1999.90;999.90;;;;;;;18.58;88.98;96365.03;4981754;28;20208;-69
2021/08/14 03:57:56;;;;;;;1999.90;999.90;;;;;;;18.66;88.49;96370.22;4981194;28;20208;-68
2021/08/14 04:00:24;;;;;;;1999.90;999.90;;;;;;;18.60;86.01;96376.75;4986286;28;20207;-64
2021/08/14 04:02:52;;;;;;;1999.90;999.90;;;;;;;18.28;85.60;96380.09;4980492;28;20218;-64
2021/08/14 04:05:19;;;;;;;1999.90;999.90;;;;;;;18.08;86.32;96378.22;4988710;28;20668;-68
2021/08/14 04:07:46;;;;;;;1999.90;999.90;;;;;;;18.04;86.65;96384.09;4975995;28;20591;-67
2021/08/14 04:10:13;;;;;;;1999.90;999.90;;;;;;;17.88;86.79;96388.34;4988432;28;20199;-66
2021/08/14 04:12:40;;;;;;;1999.90;999.90;;;;;;;17.94;88.30;96394.97;4989266;28;20199;-65
2021/08/14 04:15:09;;;;;;;1999.90;999.90;;;;;;;17.88;89.13;96398.13;4986127;28;20199;-69
2021/08/14 04:17:36;;;;;;;1999.90;999.90;;;;;;;18.22;88.59;96397.16;4985801;28;20644;-70
2021/08/14 04:20:06;;;;;;;1999.90;999.90;;;;;;;18.45;87.50;96401.00;4985773;28;20260;-71
2021/08/14 04:22:33;;;;;;;1999.90;999.90;;;;;;;18.49;87.25;96402.69;4986746;28;20202;-70
2021/08/14 04:25:01;;;;;;;1999.90;999.90;;;;;;;18.89;86.04;96400.38;4986160;28;20277;-71
2021/08/14 04:27:28;;;;;;;1999.90;999.90;;;;;;;19.01;86.02;96401.50;4986412;28;20207;-70
2021/08/14 04:29:55;;;;;;;1999.90;999.90;;;;;;;19.30;84.85;96396.09;4987005;28;20226;-70
2021/08/14 04:32:22;;;;;;;1999.90;999.90;;;;;;;19.80;82.62;96392.44;4989107;28;20259;-70
2021/08/14 04:34:49;;;;;;;1999.90;999.90;;;;;;;20.02;81.52;96390.16;4988962;28;20219;-70
2021/08/14 04:37:17;;;;;;;1999.90;999.90;;;;;;;20.35;80.30;96383.94;4988618;28;20221;-70
2021/08/14 04:39:44;;;;;;;1999.90;999.90;;;;;;;20.47;78.92;96384.69;4989040;28;20685;-70
2021/08/14 04:42:11;;;;;;;1999.90;999.90;;;;;;;20.58;78.44;96388.41;4988951;28;20199;-70
2021/08/14 04:44:38;;;;;;;1999.90;999.90;;;;;;;21.06;75.81;96391.97;4988086;28;20199;-71
2021/08/14 04:47:05;;;;;;;1999.90;999.90;;;;;;;21.39;75.41;96394.34;4988542;28;20238;-71
2021/08/14 04:49:32;;;;;;;1999.90;999.90;;;;;;;21.71;73.62;96395.13;4988522;28;20230;-71
2021/08/14 04:51:59;;;;;;;1999.90;999.90;;;;;;;21.68;74.04;96391.25;4988496;28;20253;-71
2021/08/14 04:54:28;;;;;;;1999.90;999.90;;;;;;;21.69;74.06;96398.09;4988758;28;20288;-71
2021/08/14 04:56:55;;;;;;;1999.90;999.90;;;;;;;21.41;74.61;96392.91;4988961;28;20569;-71
2021/08/14 04:59:22;;;;;;;1999.90;999.90;;;;;;;21.23;75.11;96391.66;4988416;28;20900;-71
2021/08/14 05:01:49;;;;;;;1999.90;999.90;;;;;;;21.09;75.77;96395.78;4988340;28;20770;-71
2021/08/14 05:04:17;;;;;;;1999.90;999.90;;;;;;;21.03;76.01;96398.69;4988366;28;20641;-71
2021/08/14 05:06:44;;;;;;;1999.90;999.90;;;;;;;21.03;76.68;96405.84;4988474;28;20614;-71
2021/08/14 05:09:11;;;;;;;1999.90;999.90;;;;;;;21.03;77.13;96397.91;4988724;28;20213;-71
2021/08/14 05:11:39;;;;;;;1999.90;999.90;;;;;;;21.10;77.43;96398.09;4988178;28;20214;-71
2021/08/14 05:14:06;;;;;;;1999.90;999.90;;;;;;;21.30;77.40;96397.16;4988545;28;20223;-71
2021/08/14 05:16:34;;;;;;;1999.90;999.90;;;;;;;21.40;77.43;96401.94;4988487;28;20207;-71
2021/08/14 05:19:01;;;;;;;1999.90;999.90;;;;;;;21.55;78.33;96394.34;4988668;28;20204;-71
2021/08/14 05:21:29;;;;;;;1999.90;999.90;;;;;;;21.73;76.26;96398.16;4988171;28;20195;-71
2021/08/14 05:23:56;;;;;;;1999.90;999.90;;;;;;;21.94;74.23;96400.59;4988111;28;20290;-71
2021/08/14 05:26:24;;;;;;;1999.90;999.90;;;;;;;21.87;74.14;96393.22;4988385;28;20215;-71
2021/08/14 05:28:52;;;;;;;1999.90;999.90;;;;;;;21.83;76.01;96397.66;4988323;28;20206;-71
2021/08/14 05:31:19;;;;;;;1999.90;999.90;;;;;;;22.04;75.43;96395.53;4987922;28;20203;-71
2021/08/14 05:33:46;;;;;;;1999.90;999.90;;;;;;;22.36;73.85;96393.59;4987889;28;20702;-71
2021/08/14 05:36:13;;;;;;;1999.90;999.90;;;;;;;22.54;70.85;96399.25;4988085;28;20206;-71
2021/08/14 05:38:41;;;;;;;1999.90;999.90;;;;;;;22.55;71.98;96398.91;4988184;28;20222;-72
2021/08/14 05:41:09;;;;;;;1999.90;999.90;;;;;;;22.47;74.35;96405.16;4987363;28;20226;-71
2021/08/14 05:43:36;;;;;;;1999.90;999.90;;;;;;;22.41;73.72;96400.50;4987758;28;20203;-70
2021/08/14 05:46:04;;;;;;;1999.90;999.90;;;;;;;22.76;72.02;96393.28;4987639;28;20204;-71
2021/08/14 05:48:31;;;;;;;1999.90;999.90;;;;;;;22.82;70.53;96393.75;4987575;28;20238;-71
2021/08/14 05:50:58;;;;;;;1999.90;999.90;;;;;;;23.02;67.70;96393.38;4987499;28;20203;-70
2021/08/14 05:53:25;;;;;;;1999.90;999.90;;;;;;;23.18;68.33;96391.41;4987668;28;20683;-70
2021/08/14 05:55:53;;;;;;;1999.90;999.90;;;;;;;23.38;68.73;96394.03;4987670;28;20210;-71
2021/08/14 05:58:20;;;;;;;1999.90;999.90;;;;;;;23.41;66.24;96388.78;4987455;28;20203;-71
2021/08/14 06:00:47;;;;;;;1999.90;999.90;;;;;;;23.52;64.70;96388.97;4987794;28;20199;-71
2021/08/14 06:03:15;;;;;;;1999.90;999.90;;;;;;;23.66;64.72;96399.09;4987846;28;20568;-71
2021/08/14 06:05:45;;;;;;;1999.90;999.90;;;;;;;23.64;65.31;96391.47;4987736;28;20872;-70
2021/08/14 06:08:12;;;;;;;1999.90;999.90;;;;;;;23.79;64.24;96392.47;4987466;28;20206;-71
2021/08/14 06:10:40;;;;;;;1999.90;999.90;;;;;;;23.88;63.27;96399.03;4987856;28;20202;-71
2021/08/14 06:13:07;;;;;;;1999.90;999.90;;;;;;;24.09;62.90;96395.19;4988164;28;20249;-71
2021/08/14 06:15:34;;;;;;;1999.90;999.90;;;;;;;24.24;62.94;96394.28;4987294;28;20219;-71
2021/08/14 06:18:01;;;;;;;1999.90;999.90;;;;;;;24.31;62.42;96399.66;4987289;28;20210;-71
2021/08/14 06:20:29;;;;;;;1999.90;999.90;;;;;;;24.44;61.04;96406.31;4987480;28;20589;-71
2021/08/14 06:22:56;;;;;;;1999.90;999.90;;;;;;;24.20;63.01;96398.78;4987244;28;20236;-71
2021/08/14 06:25:25;;;;;;;1999.90;999.90;;;;;;;24.32;62.84;96403.88;4987057;28;20195;-71
2021/08/14 06:27:52;;;;;;;1999.90;999.90;;;;;;;24.79;61.24;96392.69;4987012;28;20214;-71
2021/08/14 06:30:19;;;;;;;1999.90;999.90;;;;;;;24.86;60.93;96390.88;4987124;28;20206;-71
2021/08/14 06:32:46;;;;;;;1999.90;999.90;;;;;;;24.95;61.16;96400.50;4987206;28;20195;-71
2021/08/14 06:35:13;;;;;;;1999.90;999.90;;;;;;;25.22;59.36;96396.59;4987200;28;20249;-71
2021/08/14 06:37:42;;;;;;;1999.90;999.90;;;;;;;25.30;59.18;96393.63;4987058;28;20199;-70
2021/08/14 06:40:10;;;;;;;1999.90;999.90;;;;;;;25.29;58.44;96388.69;4987124;28;20644;-71
2021/08/14 06:42:38;;;;;;;1999.90;999.90;;;;;;;25.44;57.79;96393.03;4987265;28;20210;-71
2021/08/14 06:45:06;;;;;;;1999.90;999.90;;;;;;;25.62;58.27;96388.63;4987147;28;20701;-71
2021/08/14 06:47:33;;;;;;;1999.90;999.90;;;;;;;25.89;56.70;96391.88;4987087;28;20207;-71
2021/08/14 06:50:00;;;;;;;1999.90;999.90;;;;;;;25.93;57.52;96397.22;4986688;28;20690;-71
2021/08/14 06:52:27;;;;;;;1999.90;999.90;;;;;;;25.90;57.14;96387.31;4986736;28;20205;-71
2021/08/14 06:54:56;;;;;;;1999.90;999.90;;;;;;;25.70;57.95;96384.88;4986710;28;20230;-71
2021/08/14 06:57:23;;;;;;;1999.90;999.90;;;;;;;26.12;55.59;96387.09;4986613;28;20199;-71
2021/08/14 06:59:50;;;;;;;1999.90;999.90;;;;;;;26.19;55.33;96385.59;4987000;28;20207;-71
2021/08/14 07:02:17;;;;;;;1999.90;999.90;;;;;;;26.11;54.31;96380.22;4986614;28;20199;-71
2021/08/14 07:04:44;;;;;;;1999.90;999.90;;;;;;;26.20;55.10;96379.91;4987103;28;20207;-71
2021/08/14 07:07:11;;;;;;;1999.90;999.90;;;;;;;26.40;56.06;96378.50;4987054;28;20210;-72
2021/08/14 07:09:38;;;;;;;1999.90;999.90;;;;;;;26.31;56.14;96372.75;4989041;28;20203;-71
2021/08/14 07:12:08;;;;;;;1999.90;999.90;;;;;;;26.30;55.24;96368.53;4990400;28;20694;-71
2021/08/14 07:14:35;;;;;;;1999.90;999.90;;;;;;;26.53;54.61;96377.06;4989946;28;20860;-72
2021/08/14 07:17:02;;;;;;;1999.90;999.90;;;;;;;26.58;55.59;96367.16;4990214;28;20208;-71
2021/08/14 07:19:29;;;;;;;1999.90;999.90;;;;;;;26.21;55.79;96373.44;4989879;28;20207;-72
2021/08/14 07:21:56;;;;;;;1999.90;999.90;;;;;;;26.30;55.83;96368.53;4990016;28;20229;-71
2021/08/14 07:24:23;;;;;;;1999.90;999.90;;;;;;;26.70;54.20;96370.25;4989811;28;20752;-71
2021/08/14 07:26:51;;;;;;;1999.90;999.90;;;;;;;26.62;54.59;96370.59;4990029;28;20207;-71
2021/08/14 07:29:19;;;;;;;1999.90;999.90;;;;;;;26.90;52.94;96378.72;4989785;28;20709;-72
2021/08/14 07:31:46;;;;;;;1999.90;999.90;;;;;;;26.62;54.35;96373.25;4989855;28;20204;-72
2021/08/14 07:34:13;;;;;;;1999.90;999.90;;;;;;;26.90;54.27;96368.03;4989796;28;20249;-72
2021/08/14 07:36:40;;;;;;;1999.90;999.90;;;;;;;27.28;53.13;96364.72;4989937;28;20211;-71
2021/08/14 07:39:07;;;;;;;1999.90;999.90;;;;;;;27.69;52.29;96375.06;4989586;28;20205;-72
2021/08/14 07:41:34;;;;;;;1999.90;999.90;;;;;;;27.93;51.22;96376.19;4989448;28;20267;-71
2021/08/14 07:44:01;;;;;;;1999.90;999.90;;;;;;;27.90;50.63;96368.91;4989821;28;20207;-70
2021/08/14 07:46:30;;;;;;;1999.90;999.90;;;;;;;28.02;49.18;96368.53;4989556;28;20207;-72
2021/08/14 07:48:57;;;;;;;1999.90;999.90;;;;;;;27.66;51.57;96370.47;4989268;28;20231;-72
2021/08/14 07:51:24;;;;;;;1999.90;999.90;;;;;;;27.32;52.60;96362.81;4989595;28;20203;-71
2021/08/14 07:53:51;;;;;;;1999.90;999.90;;;;;;;27.36;52.62;96366.22;4989399;28;20683;-72
2021/08/14 07:56:18;;;;;;;1999.90;999.90;;;;;;;27.35;51.75;96367.38;4989252;28;20302;-71
2021/08/14 07:58:45;;;;;;;1999.90;999.90;;;;;;;27.40;51.33;96358.97;4989623;28;20232;-71
2021/08/14 08:01:12;;;;;;;1999.90;999.90;;;;;;;27.70;51.74;96363.22;4989215;28;20256;-71
2021/08/14 08:03:40;;;;;;;1999.90;999.90;;;;;;;28.00;50.23;96366.22;4989540;28;20211;-71
2021/08/14 08:06:07;;;;;;;1999.90;999.90;;;;;;;27.82;51.33;96368.94;4989534;28;20192;-72
2021/08/14 08:08:35;;;;;;;1999.90;999.90;;;;;;;27.67;52.01;96364.75;4989275;28;20264;-71
2021/08/14 08:11:02;;;;;;;1999.90;999.90;;;;;;;27.57;52.12;96362.84;4989700;28;20278;-71
2021/08/14 08:13:29;;;;;;;1999.90;999.90;;;;;;;27.76;51.92;96359.78;4989512;28;20199;-71
2021/08/14 08:15:56;;;;;;;1999.90;999.90;;;;;;;27.60;51.57;96355.97;4989376;28;20219;-72
2021/08/14 08:18:23;;;;;;;1999.90;999.90;;;;;;;27.93;52.11;96358.25;4989078;28;20245;-71
2021/08/14 08:20:51;;;;;;;1999.90;999.90;;;;;;;28.48;50.03;96358.50;4988910;28;20236;-71
2021/08/14 08:23:19;;;;;;;1999.90;999.90;;;;;;;28.57;50.36;96350.06;4989000;28;20211;-71
2021/08/14 08:25:46;;;;;;;1999.90;999.90;;;;;;;28.95;46.71;96345.69;4988898;28;20195;-72
2021/08/14 08:28:13;;;;;;;1999.90;999.90;;;;;;;29.03;46.80;96342.59;4988951;28;20204;-72
2021/08/14 08:30:40;;;;;;;1999.90;999.90;;;;;;;29.18;46.13;96343.25;4988824;28;20210;-72
2021/08/14 08:33:07;;;;;;;1999.90;999.90;;;;;;;29.35;46.25;96334.34;4989124;28;20260;-71
2021/08/14 08:35:34;;;;;;;1999.90;999.90;;;;;;;29.52;45.69;96338.06;4988689;28;20228;-72
2021/08/14 08:38:02;;;;;;;1999.90;999.90;;;;;;;29.80;45.04;96337.03;4988858;28;20199;-72
2021/08/14 08:40:37;;;;;;;1999.90;999.90;;;;;;;30.18;43.04;96335.16;4988621;28;20344;-72
2021/08/14 08:43:04;;;;;;;1999.90;999.90;;;;;;;30.19;42.49;96333.97;4981945;28;20849;-72
2021/08/14 08:45:32;;;;;;;1999.90;999.90;;;;;;;30.26;40.42;96329.31;4969129;28;20238;-73
2021/08/14 08:48:00;;;;;;;1999.90;999.90;;;;;;;30.48;40.82;96332.53;4969379;28;20204;-70
2021/08/14 08:50:29;;;;;;;1999.90;999.90;;;;;;;30.69;40.37;96332.25;4983510;28;20700;-72
2021/08/14 08:52:56;;;;;;;1999.90;999.90;;;;;;;30.74;38.22;96323.75;4988555;28;20199;-72
2021/08/14 08:55:25;;;;;;;1999.90;999.90;;;;;;;30.90;37.37;96322.38;4988614;28;20258;-72
2021/08/14 08:57:52;;;;;;;1999.90;999.90;;;;;;;30.94;37.19;96326.53;4987988;28;20211;-75
2021/08/14 09:00:19;;;;;;;1999.90;999.90;;;;;;;30.72;38.02;96328.00;4988140;28;20195;-73
2021/08/14 09:02:48;;;;;;;1999.90;999.90;;;;;;;30.88;38.40;96322.06;4985802;28;20207;-73
2021/08/14 09:05:17;;;;;;;1999.90;999.90;;;;;;;31.01;39.23;96323.00;4986691;28;20199;-73
2021/08/14 09:07:46;;;;;;;1999.90;999.90;;;;;;;31.24;37.36;96316.91;4988064;28;20265;-73
2021/08/14 09:10:15;;;;;;;1999.90;999.90;;;;;;;30.54;38.27;96322.09;4988357;28;20195;-72
2021/08/14 09:12:45;;;;;;;1999.90;999.90;;;;;;;30.08;39.43;96311.91;4988481;28;20208;-73
2021/08/14 09:15:16;;;;;;;1999.90;999.90;;;;;;;30.35;39.18;96312.72;4988061;28;20233;-73
2021/08/14 09:17:45;;;;;;;1999.90;999.90;;;;;;;30.60;38.21;96309.75;4988292;28;20566;-73
2021/08/14 09:20:15;;;;;;;1999.90;999.90;;;;;;;30.71;37.57;96305.00;4988178;28;20203;-73
2021/08/14 09:22:45;;;;;;;1999.90;999.90;;;;;;;30.76;38.02;96305.31;4988368;28;20196;-73
2021/08/14 09:25:17;;;;;;;1999.90;999.90;;;;;;;30.83;39.88;96311.75;4988067;28;20200;-73
2021/08/14 09:27:55;;;;;;;1999.90;999.90;;;;;;;31.06;37.80;96301.09;4988371;28;20720;-73
2021/08/14 09:30:42;;;;;;;1999.90;999.90;;;;;;;31.21;37.33;96299.72;4988021;28;20199;-73
2021/08/14 09:33:10;;;;;;;1999.90;999.90;;;;;;;31.61;36.22;96298.69;4987588;28;20192;-73
2021/08/14 09:35:37;;;;;;;1999.90;999.90;;;;;;;31.54;37.46;96290.69;4987797;28;20227;-73
2021/08/14 09:38:06;;;;;;;1999.90;999.90;;;;;;;31.71;36.50;96290.84;4987930;28;20591;-73
2021/08/14 09:40:39;;;;;;;1999.90;999.90;;;;;;;31.90;36.83;96284.72;4988159;28;20698;-73
2021/08/14 09:43:08;;;;;;;1999.90;999.90;;;;;;;32.15;35.39;96287.72;4987654;28;20230;-73
2021/08/14 09:45:35;;;;;;;1999.90;999.90;;;;;;;32.30;36.14;96283.59;4987671;28;20733;-74
2021/08/14 09:48:19;;;;;;;1999.90;999.90;;;;;;;32.00;34.96;96283.75;4987914;28;20260;-73
2021/08/14 09:50:46;;;;;;;1999.90;999.90;;;;;;;31.79;36.18;96274.16;4987638;28;20210;-73
2021/08/14 09:53:15;;;;;;;1999.90;999.90;;;;;;;31.74;36.99;96266.56;4987896;28;20199;-73
2021/08/14 09:55:44;;;;;;;1999.90;999.90;;;;;;;31.87;35.72;96272.88;4987905;28;20224;-73
2021/08/14 09:58:16;;;;;;;1999.90;999.90;;;;;;;31.96;35.37;96272.31;4987586;28;20203;-73
2021/08/14 10:00:45;;;;;;;1999.90;999.90;;;;;;;32.16;35.37;96261.59;4987460;28;20188;-73
2021/08/14 10:03:16;;;;;;;1999.90;999.90;;;;;;;32.26;35.72;96263.31;4987425;28;20242;-73
2021/08/14 10:05:44;;;;;;;1999.90;999.90;;;;;;;32.42;35.16;96250.66;4987473;28;20234;-73
2021/08/14 10:08:11;;;;;;;1999.90;999.90;;;;;;;32.45;36.23;96249.06;4987649;28;20234;-73
2021/08/14 10:10:39;;;;;;;1999.90;999.90;;;;;;;32.41;35.02;96245.69;4987413;28;20242;-72
2021/08/14 10:13:06;;;;;;;1999.90;999.90;;;;;;;32.61;35.14;96237.56;4987281;28;20207;-73
2021/08/14 10:15:35;;;;;;;1999.90;999.90;;;;;;;32.98;34.02;96237.09;4987348;28;20230;-72
2021/08/14 10:18:03;;;;;;;1999.90;999.90;;;;;;;32.92;33.85;96232.66;4987569;28;20298;-73
2021/08/14 10:20:31;;;;;;;1999.90;999.90;;;;;;;32.80;33.03;96232.13;4987413;28;20703;-73
2021/08/14 10:23:02;;;;;;;1999.90;999.90;;;;;;;32.72;33.73;96228.09;4987288;28;20206;-73
2021/08/14 10:25:31;;;;;;;1999.90;999.90;;;;;;;32.43;33.99;96224.47;4987552;28;20536;-73
2021/08/14 10:27:59;;;;;;;1999.90;999.90;;;;;;;32.86;33.58;96218.94;4987401;28;20238;-73
2021/08/14 10:30:38;;;;;;;1999.90;999.90;;;;;;;33.09;30.33;96218.75;4987371;28;20230;-72
2021/08/14 10:33:06;;;;;;;1999.90;999.90;;;;;;;33.11;32.05;96211.00;4987439;28;20252;-73
2021/08/14 10:35:40;;;;;;;1999.90;999.90;;;;;;;33.05;31.94;96218.09;4986835;28;20227;-73
2021/08/14 10:38:38;;;;;;;1999.90;999.90;;;;;;;33.24;34.60;96208.41;4986964;28;20647;-72
2021/08/14 10:41:05;;;;;;;1999.90;999.90;;;;;;;33.48;32.19;96211.63;4988514;28;20245;-73
2021/08/14 10:43:58;;;;;;;1999.90;999.90;;;;;;;33.35;31.34;96208.91;4986067;28;20207;-73
2021/08/14 10:46:42;;;;;;;1999.90;999.90;;;;;;;33.49;31.75;96202.38;4986881;28;20580;-74
2021/08/14 10:49:11;;;;;;;1999.90;999.90;;;;;;;33.68;31.27;96204.19;4986774;28;20321;-73
2021/08/14 10:52:10;;;;;;;1999.90;999.90;;;;;;;33.60;31.89;96200.91;4986947;28;20206;-73
2021/08/14 10:55:09;;;;;;;1999.90;999.90;;;;;;;33.39;30.31;96201.47;4986643;28;20728;-72
2021/08/14 10:57:41;;;;;;;1999.90;999.90;;;;;;;32.94;30.93;96201.41;4987014;28;20203;-73
2021/08/14 11:00:16;;;;;;;1999.90;999.90;;;;;;;32.70;31.27;96195.44;4986863;28;20204;-73